Time;durP1;ratioP1;P1;durP2;ratioP2;P2;SDS_P1;SDS_P2;PMS_P1;PMS_P2;Temp;Humidity;BMP_temperature;BMP_pressure;BME280_temperature;BME280_humidity;BME280_pressure;Samples;Min_cycle;Max_cycle;Signal;HPM_P1;HPM_P2
2021/01/17 00:00:01;;;;;;;15.55;5.43;;;;;;;-144.78;100.00;59851.00;5012999;28;20538;-67
2021/01/17 00:02:27;;;;;;;10.75;7.53;;;;;;;-144.78;100.00;59851.00;5012723;28;20199;-69
2021/01/17 00:04:54;;;;;;;11.45;6.93;;;;;;;-144.78;100.00;59851.00;5012815;28;20252;-70
2021/01/17 00:07:21;;;;;;;8.50;5.72;;;;;;;-144.78;100.00;59851.00;5012394;28;20206;-69
2021/01/17 00:09:47;;;;;;;10.20;7.00;;;;;;;-144.78;100.00;59851.00;5012582;28;20214;-70
2021/01/17 00:12:13;;;;;;;17.88;8.40;;;;;;;-144.78;100.00;59851.00;5019359;28;20229;-69
2021/01/17 00:14:39;;;;;;;15.57;7.72;;;;;;;-144.78;100.00;59851.00;5032561;28;20191;-69
2021/01/17 00:17:05;;;;;;;18.58;7.22;;;;;;;-144.78;100.00;59851.00;5032406;28;20221;-68
2021/01/17 00:19:32;;;;;;;13.45;6.95;;;;;;;-144.78;100.00;59851.00;5031935;28;20307;-70
2021/01/17 00:21:59;;;;;;;18.58;8.82;;;;;;;-144.78;100.00;59851.00;5032374;28;20586;-67
2021/01/17 00:24:25;;;;;;;11.48;6.20;;;;;;;-144.78;100.00;59851.00;5032339;28;20561;-69
2021/01/17 00:26:52;;;;;;;14.63;6.63;;;;;;;-144.78;100.00;59851.00;5032337;28;20633;-68
2021/01/17 00:29:18;;;;;;;9.20;6.30;;;;;;;-144.78;100.00;59851.00;5022724;28;20222;-70
2021/01/17 00:31:44;;;;;;;14.77;7.78;;;;;;;-144.78;100.00;59851.00;5011861;28;20212;-68
2021/01/17 00:34:10;;;;;;;12.75;6.25;;;;;;;-144.78;100.00;59851.00;5012675;28;20214;-69
2021/01/17 00:36:38;;;;;;;11.95;5.45;;;;;;;-144.78;100.00;59851.00;5012319;28;20228;-68
2021/01/17 00:39:07;;;;;;;15.52;7.85;;;;;;;-144.78;100.00;59851.00;5012629;28;20206;-70
2021/01/17 00:41:34;;;;;;;18.58;7.78;;;;;;;-144.78;100.00;59851.00;5013789;28;20547;-69
2021/01/17 00:44:04;;;;;;;11.02;5.90;;;;;;;-144.78;100.00;59851.00;5033634;28;20597;-70
2021/01/17 00:46:36;;;;;;;14.25;6.72;;;;;;;-144.78;100.00;59851.00;5036096;28;20193;-70
2021/01/17 00:49:04;;;;;;;10.00;6.47;;;;;;;-144.78;100.00;59851.00;5035850;28;20246;-69
2021/01/17 00:51:38;;;;;;;12.85;7.28;;;;;;;-144.78;100.00;59851.00;5035624;28;20667;-69
2021/01/17 00:54:06;;;;;;;11.40;8.23;;;;;;;-144.78;100.00;59851.00;5035748;28;20213;-70
2021/01/17 00:56:32;;;;;;;13.60;7.88;;;;;;;-144.78;100.00;59851.00;5035452;28;20297;-69
2021/01/17 00:58:59;;;;;;;13.45;6.88;;;;;;;-144.78;100.00;59851.00;5035675;28;20229;-69
2021/01/17 01:01:25;;;;;;;9.23;6.47;;;;;;;-144.78;100.00;59851.00;5035111;28;20201;-70
2021/01/17 01:03:51;;;;;;;10.90;6.60;;;;;;;-144.78;100.00;59851.00;5035435;28;20598;-70
2021/01/17 01:06:18;;;;;;;10.13;6.93;;;;;;;-144.78;100.00;59851.00;5035270;28;20534;-70
2021/01/17 01:08:45;;;;;;;9.48;5.30;;;;;;;-144.78;100.00;59851.00;5035281;28;20186;-68
2021/01/17 01:11:18;;;;;;;14.27;7.40;;;;;;;-144.78;100.00;59851.00;5035368;28;20671;-69
2021/01/17 01:13:45;;;;;;;6.70;5.05;;;;;;;-144.78;100.00;59851.00;5035252;28;20260;-68
2021/01/17 01:16:14;;;;;;;17.25;7.95;;;;;;;-144.78;100.00;59851.00;5035434;28;20516;-69
2021/01/17 01:18:41;;;;;;;10.25;6.93;;;;;;;-144.78;100.00;59851.00;5035249;28;20601;-69
2021/01/17 01:21:07;;;;;;;8.63;5.85;;;;;;;-144.78;100.00;59851.00;5035153;28;20190;-67
2021/01/17 01:23:33;;;;;;;9.55;6.68;;;;;;;-144.78;100.00;59851.00;5035052;28;20601;-69
2021/01/17 01:26:00;;;;;;;9.13;6.30;;;;;;;-144.78;100.00;59851.00;5035326;28;20618;-68
2021/01/17 01:28:27;;;;;;;10.77;6.50;;;;;;;-144.78;100.00;59851.00;5034624;28;20240;-69
2021/01/17 01:30:54;;;;;;;11.00;6.18;;;;;;;-144.78;100.00;59851.00;5034794;28;20186;-68
2021/01/17 01:33:20;;;;;;;12.50;6.20;;;;;;;-144.78;100.00;59851.00;5034451;28;20720;-70
2021/01/17 01:35:47;;;;;;;10.52;6.85;;;;;;;-144.78;100.00;59851.00;5034431;28;20260;-69
2021/01/17 01:38:14;;;;;;;13.55;6.72;;;;;;;-144.78;100.00;59851.00;5034784;28;20194;-67
2021/01/17 01:40:41;;;;;;;13.98;6.50;;;;;;;-144.78;100.00;59851.00;5034591;28;20292;-70
2021/01/17 01:43:07;;;;;;;10.68;6.93;;;;;;;-144.78;100.00;59851.00;5034209;28;20209;-69
2021/01/17 01:45:34;;;;;;;12.95;6.53;;;;;;;-144.78;100.00;59851.00;5034533;28;20293;-69
2021/01/17 01:48:02;;;;;;;11.80;5.93;;;;;;;-144.78;100.00;59851.00;5034028;28;20206;-68
2021/01/17 01:50:31;;;;;;;9.10;5.43;;;;;;;-144.78;100.00;59851.00;5034384;28;20213;-68
2021/01/17 01:52:57;;;;;;;10.63;7.00;;;;;;;-144.78;100.00;59851.00;5034414;28;20297;-68
2021/01/17 01:55:24;;;;;;;14.43;6.75;;;;;;;-144.78;100.00;59851.00;5034127;28;20620;-69
2021/01/17 01:57:50;;;;;;;10.95;6.63;;;;;;;-144.78;100.00;59851.00;5034642;28;20567;-70
2021/01/17 02:00:18;;;;;;;14.48;5.55;;;;;;;-144.78;100.00;59851.00;5034218;28;20191;-69
2021/01/17 02:02:46;;;;;;;12.73;6.78;;;;;;;-144.78;100.00;59851.00;5034281;28;20609;-70
2021/01/17 02:05:13;;;;;;;10.70;4.95;;;;;;;-144.78;100.00;59851.00;5034311;28;20256;-68
2021/01/17 02:08:14;;;;;;;13.40;8.07;;;;;;;-144.78;100.00;59851.00;5034236;28;20190;-68
2021/01/17 02:10:41;;;;;;;12.80;7.00;;;;;;;-144.78;100.00;59851.00;5033987;28;20197;-69
2021/01/17 02:13:15;;;;;;;13.38;6.13;;;;;;;-144.78;100.00;59851.00;5033857;28;20249;-69
2021/01/17 02:15:42;;;;;;;10.57;6.03;;;;;;;-144.78;100.00;59851.00;5033945;28;20585;-70
2021/01/17 02:18:10;;;;;;;8.70;7.28;;;;;;;-144.78;100.00;59851.00;5034280;28;20213;-68
2021/01/17 02:20:38;;;;;;;14.68;8.27;;;;;;;-144.78;100.00;59851.00;5033499;28;20190;-69
2021/01/17 02:23:11;;;;;;;7.95;5.70;;;;;;;-144.78;100.00;59851.00;5033548;28;20216;-68
2021/01/17 02:25:40;;;;;;;8.73;6.57;;;;;;;-144.78;100.00;59851.00;5034240;28;20233;-68
2021/01/17 02:28:09;;;;;;;11.30;5.45;;;;;;;-144.78;100.00;59851.00;5033654;28;20316;-68
2021/01/17 02:30:38;;;;;;;15.80;6.72;;;;;;;-144.78;100.00;59851.00;5033644;28;20218;-68
2021/01/17 02:33:09;;;;;;;9.55;5.43;;;;;;;-144.78;100.00;59851.00;5033351;28;20216;-69
2021/01/17 02:35:36;;;;;;;10.65;6.88;;;;;;;-144.78;100.00;59851.00;5033059;28;20237;-68
2021/01/17 02:38:12;;;;;;;16.85;6.75;;;;;;;-144.78;100.00;59851.00;5033180;28;20253;-69
2021/01/17 02:40:53;;;;;;;6.72;5.88;;;;;;;-144.78;100.00;59851.00;5033611;28;20248;-69
2021/01/17 02:43:20;;;;;;;10.20;6.35;;;;;;;-144.78;100.00;59851.00;5033203;28;20210;-68
2021/01/17 02:45:47;;;;;;;8.48;5.25;;;;;;;-144.78;100.00;59851.00;5033108;28;20625;-69
2021/01/17 02:48:13;;;;;;;11.73;5.55;;;;;;;-144.78;100.00;59851.00;5033419;28;20197;-68
2021/01/17 02:50:40;;;;;;;9.95;5.57;;;;;;;-144.78;100.00;59851.00;5033267;28;20210;-69
2021/01/17 02:53:14;;;;;;;13.48;6.95;;;;;;;-144.78;100.00;59851.00;5033466;28;20241;-69
2021/01/17 02:55:41;;;;;;;7.90;5.78;;;;;;;-144.78;100.00;59851.00;5033529;28;20193;-69
2021/01/17 02:58:09;;;;;;;12.07;6.30;;;;;;;-144.78;100.00;59851.00;5033579;28;20244;-69
2021/01/17 03:00:39;;;;;;;13.75;5.32;;;;;;;-144.78;100.00;59851.00;5033047;28;20190;-69
2021/01/17 03:03:07;;;;;;;18.15;5.78;;;;;;;-144.78;100.00;59851.00;5033436;28;20241;-69
2021/01/17 03:05:35;;;;;;;9.10;5.63;;;;;;;-144.78;100.00;59851.00;5033066;28;20243;-69
2021/01/17 03:08:05;;;;;;;9.85;6.25;;;;;;;-144.78;100.00;59851.00;5032334;28;20273;-68
2021/01/17 03:10:31;;;;;;;9.73;5.47;;;;;;;-144.78;100.00;59851.00;5033273;28;20236;-68
2021/01/17 03:13:00;;;;;;;8.00;5.70;;;;;;;-144.78;100.00;59851.00;5033076;28;20284;-68
2021/01/17 03:15:31;;;;;;;12.93;5.97;;;;;;;-144.78;100.00;59851.00;5033245;28;20583;-70
2021/01/17 03:17:58;;;;;;;11.32;5.57;;;;;;;-144.78;100.00;59851.00;5033051;28;20216;-71
2021/01/17 03:20:24;;;;;;;13.45;6.10;;;;;;;-144.78;100.00;59851.00;5032571;28;20182;-68
2021/01/17 03:22:50;;;;;;;9.32;5.15;;;;;;;-144.78;100.00;59851.00;5033089;28;20202;-68
2021/01/17 03:25:16;;;;;;;6.15;5.10;;;;;;;-144.78;100.00;59851.00;5032736;28;20656;-68
2021/01/17 03:27:43;;;;;;;12.90;5.72;;;;;;;-144.78;100.00;59851.00;5032488;28;20233;-68
2021/01/17 03:30:10;;;;;;;10.82;5.82;;;;;;;-144.78;100.00;59851.00;5032676;28;20198;-69
2021/01/17 03:32:37;;;;;;;9.60;6.47;;;;;;;-144.78;100.00;59851.00;5032563;28;20230;-68
2021/01/17 03:35:04;;;;;;;8.18;5.45;;;;;;;-144.78;100.00;59851.00;5032791;28;20592;-68
2021/01/17 03:37:30;;;;;;;8.68;5.10;;;;;;;-144.78;100.00;59851.00;5032832;28;20252;-69
2021/01/17 03:39:57;;;;;;;20.15;7.20;;;;;;;-144.78;100.00;59851.00;5032932;28;20722;-68
2021/01/17 03:42:23;;;;;;;10.27;6.60;;;;;;;-144.78;100.00;59851.00;5032194;28;20210;-69
2021/01/17 03:44:49;;;;;;;9.90;6.25;;;;;;;-144.78;100.00;59851.00;5032695;28;20311;-68
2021/01/17 03:47:16;;;;;;;8.80;6.50;;;;;;;-144.78;100.00;59851.00;5032560;28;20194;-70
2021/01/17 03:49:43;;;;;;;10.45;6.78;;;;;;;-144.78;100.00;59851.00;5032062;28;20209;-69
2021/01/17 03:52:09;;;;;;;12.18;6.43;;;;;;;-144.78;100.00;59851.00;5032495;28;20526;-70
2021/01/17 03:54:35;;;;;;;9.15;5.38;;;;;;;-144.78;100.00;59851.00;5032116;28;20333;-70
2021/01/17 03:57:01;;;;;;;8.25;6.70;;;;;;;-144.78;100.00;59851.00;5032302;28;20194;-69
2021/01/17 03:59:27;;;;;;;11.18;6.30;;;;;;;-144.78;100.00;59851.00;5032355;28;20283;-70
2021/01/17 04:01:54;;;;;;;11.40;5.68;;;;;;;-144.78;100.00;59851.00;5032214;28;20260;-70
2021/01/17 04:04:20;;;;;;;5.47;4.47;;;;;;;-144.78;100.00;59851.00;5032246;28;20209;-70
2021/01/17 04:06:47;;;;;;;9.50;4.70;;;;;;;-144.78;100.00;59851.00;5032254;28;20194;-70
2021/01/17 04:09:14;;;;;;;13.55;5.88;;;;;;;-144.78;100.00;59851.00;5032442;28;20292;-69
2021/01/17 04:11:41;;;;;;;9.00;6.32;;;;;;;-144.78;100.00;59851.00;5031936;28;20320;-69
2021/01/17 04:14:07;;;;;;;15.75;6.80;;;;;;;-144.78;100.00;59851.00;5031884;28;20272;-70
2021/01/17 04:20:02;;;;;;;7.97;5.00;;;;;;;-144.78;100.00;59851.00;5030407;28;20233;-68
2021/01/17 04:22:38;;;;;;;9.95;5.97;;;;;;;-144.78;100.00;59851.00;5035385;28;20225;-69
2021/01/17 04:25:10;;;;;;;6.60;4.53;;;;;;;-144.78;100.00;59851.00;5027891;28;20271;-68
2021/01/17 04:27:37;;;;;;;13.75;5.18;;;;;;;-144.78;100.00;59851.00;5034824;28;20356;-67
2021/01/17 04:30:05;;;;;;;10.35;5.93;;;;;;;-144.78;100.00;59851.00;5027335;28;20217;-67
2021/01/17 04:32:41;;;;;;;10.05;5.35;;;;;;;-144.78;100.00;59851.00;5026451;28;20193;-68
2021/01/17 04:35:14;;;;;;;8.82;5.38;;;;;;;-144.78;100.00;59851.00;5027317;28;20595;-68
2021/01/17 04:37:42;;;;;;;15.32;6.97;;;;;;;-144.78;100.00;59851.00;5034592;28;20221;-68
2021/01/17 04:40:09;;;;;;;11.35;6.10;;;;;;;-144.78;100.00;59851.00;5027206;28;20252;-69
2021/01/17 04:42:41;;;;;;;10.95;4.35;;;;;;;-144.78;100.00;59851.00;5027507;28;20613;-67
2021/01/17 04:45:16;;;;;;;8.95;5.07;;;;;;;-144.78;100.00;59851.00;5031574;28;20198;-69
2021/01/17 04:47:46;;;;;;;13.00;5.70;;;;;;;-144.78;100.00;59851.00;5015118;28;20688;-68
2021/01/17 04:50:18;;;;;;;10.05;7.28;;;;;;;-144.78;100.00;59851.00;5027299;28;20198;-68
2021/01/17 04:53:00;;;;;;;5.20;4.50;;;;;;;-144.78;100.00;59851.00;5018692;28;20269;-69
2021/01/17 04:55:33;;;;;;;9.90;5.88;;;;;;;-144.78;100.00;59851.00;5026240;28;20593;-68
2021/01/17 04:58:11;;;;;;;11.10;4.85;;;;;;;-144.78;100.00;59851.00;5034320;28;20206;-69
2021/01/17 05:00:44;;;;;;;14.57;6.15;;;;;;;-144.78;100.00;59851.00;5034555;28;20197;-67
2021/01/17 05:03:24;;;;;;;18.13;6.97;;;;;;;-144.78;100.00;59851.00;5025900;28;20226;-69
2021/01/17 05:06:08;;;;;;;8.93;6.13;;;;;;;-144.78;100.00;59851.00;5034466;28;20212;-67
2021/01/17 05:08:46;;;;;;;8.70;5.32;;;;;;;-144.78;100.00;59851.00;5020942;28;20213;-68
2021/01/17 05:11:31;;;;;;;8.52;6.07;;;;;;;-144.78;100.00;59851.00;5033147;28;20205;-69
2021/01/17 05:14:13;;;;;;;7.43;5.35;;;;;;;-144.78;100.00;59851.00;5018525;28;20341;-67
2021/01/17 05:16:46;;;;;;;20.67;6.68;;;;;;;-144.78;100.00;59851.00;5027398;28;20210;-69
2021/01/17 05:19:16;;;;;;;15.80;7.32;;;;;;;-144.78;100.00;59851.00;5021541;28;20218;-68
2021/01/17 05:21:48;;;;;;;11.52;6.65;;;;;;;-144.78;100.00;59851.00;5019414;28;20677;-69
2021/01/17 05:24:23;;;;;;;13.68;5.93;;;;;;;-144.78;100.00;59851.00;5033961;28;20202;-68
2021/01/17 05:27:02;;;;;;;11.40;5.88;;;;;;;-144.78;100.00;59851.00;5033103;28;20198;-69
2021/01/17 05:29:36;;;;;;;9.80;5.95;;;;;;;-144.78;100.00;59851.00;5015404;28;20634;-68
2021/01/17 05:32:07;;;;;;;8.00;5.18;;;;;;;-144.78;100.00;59851.00;5013339;28;20285;-67
2021/01/17 05:34:33;;;;;;;13.48;6.38;;;;;;;-144.78;100.00;59851.00;5014048;28;20242;-68
2021/01/17 05:37:05;;;;;;;11.63;6.05;;;;;;;-144.78;100.00;59851.00;5014082;28;20218;-70
2021/01/17 05:40:01;;;;;;;14.02;5.70;;;;;;;-144.78;100.00;59851.00;5013755;28;20641;-68
2021/01/17 05:42:35;;;;;;;11.00;6.20;;;;;;;-144.78;100.00;59851.00;5013541;28;20209;-67
2021/01/17 05:45:17;;;;;;;13.55;6.10;;;;;;;-144.78;100.00;59851.00;5013837;28;20561;-67
2021/01/17 05:47:55;;;;;;;12.30;6.30;;;;;;;-144.78;100.00;59851.00;5013652;28;20214;-67
2021/01/17 05:50:28;;;;;;;10.77;5.32;;;;;;;-144.78;100.00;59851.00;5013551;28;20377;-67
2021/01/17 05:52:55;;;;;;;12.82;7.65;;;;;;;-144.78;100.00;59851.00;5013513;28;20538;-70
2021/01/17 05:55:36;;;;;;;10.73;6.32;;;;;;;-144.78;100.00;59851.00;5013874;28;20249;-68
2021/01/17 05:58:22;;;;;;;10.57;6.35;;;;;;;-144.78;100.00;59851.00;5013583;28;20218;-68
2021/01/17 06:01:04;;;;;;;11.63;4.90;;;;;;;-144.78;100.00;59851.00;5013330;28;20640;-69
2021/01/17 06:03:33;;;;;;;14.35;6.38;;;;;;;-144.78;100.00;59851.00;5013282;28;20229;-69
2021/01/17 06:06:10;;;;;;;11.10;4.70;;;;;;;-144.78;100.00;59851.00;5012934;28;20213;-69
2021/01/17 06:08:44;;;;;;;11.80;5.43;;;;;;;-144.78;100.00;59851.00;5013545;28;20194;-69
2021/01/17 06:11:16;;;;;;;12.43;6.03;;;;;;;-144.78;100.00;59851.00;5013213;28;20218;-69
2021/01/17 06:13:57;;;;;;;13.02;7.30;;;;;;;-144.78;100.00;59851.00;5013058;28;20242;-67
2021/01/17 06:16:29;;;;;;;13.10;7.22;;;;;;;-144.78;100.00;59851.00;5012553;28;20233;-68
2021/01/17 06:19:05;;;;;;;13.50;4.90;;;;;;;-144.78;100.00;59851.00;5013445;28;20203;-67
2021/01/17 06:21:33;;;;;;;11.95;4.80;;;;;;;-144.78;100.00;59851.00;5005293;28;20317;-68
2021/01/17 06:24:05;;;;;;;10.68;4.95;;;;;;;-144.78;100.00;59851.00;5013299;28;20617;-67
2021/01/17 06:26:40;;;;;;;14.55;5.95;;;;;;;-144.78;100.00;59851.00;5013154;28;20312;-68
2021/01/17 06:29:12;;;;;;;10.27;5.47;;;;;;;-144.78;100.00;59851.00;5012890;28;20221;-70
2021/01/17 06:31:45;;;;;;;10.25;5.65;;;;;;;-144.78;100.00;59851.00;5013294;28;20644;-67
2021/01/17 06:34:18;;;;;;;14.10;6.32;;;;;;;-144.78;100.00;59851.00;5012773;28;20570;-68
2021/01/17 06:36:50;;;;;;;8.80;4.13;;;;;;;-144.78;100.00;59851.00;5012663;28;20203;-68
2021/01/17 06:39:27;;;;;;;14.05;5.80;;;;;;;-144.78;100.00;59851.00;5012793;28;20715;-68
2021/01/17 06:41:57;;;;;;;13.52;5.78;;;;;;;-144.78;100.00;59851.00;5005277;28;20518;-69
2021/01/17 06:44:28;;;;;;;9.30;5.65;;;;;;;-144.78;100.00;59851.00;5012973;28;20197;-68
2021/01/17 06:47:18;;;;;;;10.15;6.25;;;;;;;-144.78;100.00;59851.00;5012921;28;20222;-68
2021/01/17 06:49:56;;;;;;;17.05;6.82;;;;;;;-144.78;100.00;59851.00;5012812;28;20207;-68
2021/01/17 06:52:44;;;;;;;6.95;4.70;;;;;;;-144.78;100.00;59851.00;5012829;28;20203;-68
2021/01/17 06:55:22;;;;;;;7.57;4.28;;;;;;;-144.78;100.00;59851.00;5005236;28;20213;-69
2021/01/17 06:57:56;;;;;;;7.47;4.90;;;;;;;-144.78;100.00;59851.00;5012697;28;20561;-68
2021/01/17 07:00:23;;;;;;;11.30;5.32;;;;;;;-144.78;100.00;59851.00;5012785;28;20256;-69
2021/01/17 07:02:54;;;;;;;9.73;5.70;;;;;;;-144.78;100.00;59851.00;5012216;28;20233;-68
2021/01/17 07:06:01;;;;;;;9.52;5.70;;;;;;;-144.78;100.00;59851.00;5013129;28;20240;-68
2021/01/17 07:08:55;;;;;;;12.30;5.63;;;;;;;-144.78;100.00;59851.00;5012599;28;20290;-68
2021/01/17 07:12:07;;;;;;;11.32;5.18;;;;;;;-144.78;100.00;59851.00;5005160;28;20198;-69
2021/01/17 07:14:52;;;;;;;10.55;5.47;;;;;;;-144.78;100.00;59851.00;5005902;28;20237;-68
2021/01/17 07:17:31;;;;;;;11.32;5.68;;;;;;;-144.78;100.00;59851.00;5012402;28;20202;-68
2021/01/17 07:20:02;;;;;;;11.63;3.90;;;;;;;-144.78;100.00;59851.00;5013067;28;20218;-69
2021/01/17 07:22:35;;;;;;;5.88;3.75;;;;;;;-144.78;100.00;59851.00;5012501;28;20202;-68
2021/01/17 07:25:02;;;;;;;7.45;4.50;;;;;;;-144.78;100.00;59851.00;5013072;28;20554;-68
2021/01/17 07:28:02;;;;;;;8.10;4.40;;;;;;;-144.78;100.00;59851.00;5012642;28;20210;-66
2021/01/17 07:31:05;;;;;;;8.98;5.45;;;;;;;-144.78;100.00;59851.00;5001008;28;20723;-69
2021/01/17 07:33:36;;;;;;;10.75;5.05;;;;;;;-144.78;100.00;59851.00;4995126;28;20229;-68
2021/01/17 07:36:04;;;;;;;7.53;5.20;;;;;;;-144.78;100.00;59851.00;5012961;28;20925;-69
2021/01/17 07:38:32;;;;;;;8.63;4.68;;;;;;;-144.78;100.00;59851.00;5012162;28;20349;-68
2021/01/17 07:41:02;;;;;;;12.98;5.70;;;;;;;-144.78;100.00;59851.00;5012304;28;20183;-68
2021/01/17 07:43:31;;;;;;;8.65;4.30;;;;;;;-144.78;100.00;59851.00;5012574;28;20195;-67
2021/01/17 07:46:00;;;;;;;15.00;8.02;;;;;;;-144.78;100.00;59851.00;5005210;28;20650;-67
2021/01/17 07:48:27;;;;;;;10.15;5.10;;;;;;;-144.78;100.00;59851.00;5012642;28;20253;-67
2021/01/17 07:53:51;;;;;;;5.82;3.90;;;;;;;-144.78;100.00;59851.00;5011082;28;20245;-69
2021/01/17 07:56:27;;;;;;;10.75;6.18;;;;;;;-144.78;100.00;59851.00;5010722;28;20708;-68
2021/01/17 07:58:58;;;;;;;5.63;4.45;;;;;;;-144.78;100.00;59851.00;5016536;28;20302;-68
2021/01/17 08:01:44;;;;;;;12.50;5.95;;;;;;;-144.78;100.00;59851.00;5016230;28;20194;-68
2021/01/17 08:04:25;;;;;;;8.85;5.25;;;;;;;-144.78;100.00;59851.00;5016307;28;20201;-70
2021/01/17 08:06:58;;;;;;;10.75;5.30;;;;;;;-144.78;100.00;59851.00;5016107;28;20206;-68
2021/01/17 08:09:56;;;;;;;6.63;4.88;;;;;;;-144.78;100.00;59851.00;5009364;28;20531;-68
2021/01/17 08:12:37;;;;;;;10.02;5.88;;;;;;;-144.78;100.00;59851.00;5016549;28;20234;-68
2021/01/17 08:15:29;;;;;;;9.85;4.80;;;;;;;-144.78;100.00;59851.00;5016356;28;20687;-70
2021/01/17 08:17:56;;;;;;;9.15;5.38;;;;;;;-144.78;100.00;59851.00;5016351;28;20198;-69
2021/01/17 08:20:27;;;;;;;5.07;4.20;;;;;;;-144.78;100.00;59851.00;5015733;28;20588;-69
2021/01/17 08:23:05;;;;;;;17.08;5.00;;;;;;;-144.78;100.00;59851.00;5016102;28;20273;-68
2021/01/17 08:25:55;;;;;;;10.80;6.18;;;;;;;-144.78;100.00;59851.00;5016253;28;20274;-67
2021/01/17 08:28:45;;;;;;;11.32;6.22;;;;;;;-144.78;100.00;59851.00;5015588;28;20784;-69
2021/01/17 08:31:43;;;;;;;13.85;5.47;;;;;;;-144.78;100.00;59851.00;5016396;28;20222;-67
2021/01/17 08:34:14;;;;;;;14.93;7.30;;;;;;;-144.78;100.00;59851.00;5016371;28;20661;-68
2021/01/17 08:36:41;;;;;;;9.07;6.05;;;;;;;-144.78;100.00;59851.00;5016533;28;20716;-67
2021/01/17 08:39:10;;;;;;;12.98;7.70;;;;;;;-144.78;100.00;59851.00;5016900;28;20226;-70
2021/01/17 08:41:41;;;;;;;10.55;6.50;;;;;;;-144.78;100.00;59851.00;5016373;28;20190;-70
2021/01/17 08:44:32;;;;;;;11.40;7.10;;;;;;;-144.78;100.00;59851.00;5016489;28;20206;-70
2021/01/17 08:47:31;;;;;;;13.85;5.72;;;;;;;-144.78;100.00;59851.00;5003966;28;20203;-69
2021/01/17 08:49:58;;;;;;;9.90;5.30;;;;;;;-144.78;100.00;59851.00;5015716;28;20671;-69
2021/01/17 08:52:27;;;;;;;9.07;5.85;;;;;;;-144.78;100.00;59851.00;5016026;28;20202;-69
2021/01/17 08:54:56;;;;;;;12.38;7.35;;;;;;;-144.78;100.00;59851.00;5016188;28;20219;-69
2021/01/17 08:57:38;;;;;;;9.90;5.80;;;;;;;-144.78;100.00;59851.00;5015087;28;20310;-71
2021/01/17 09:00:09;;;;;;;10.70;6.35;;;;;;;-144.78;100.00;59851.00;5014916;28;20215;-71
2021/01/17 09:02:39;;;;;;;8.57;5.80;;;;;;;-144.78;100.00;59851.00;5014928;28;20257;-71
2021/01/17 09:05:33;;;;;;;10.40;6.15;;;;;;;-144.78;100.00;59851.00;5014493;28;20202;-71
2021/01/17 09:08:06;;;;;;;13.23;6.90;;;;;;;-144.78;100.00;59851.00;5015105;28;20187;-71
2021/01/17 09:10:35;;;;;;;15.13;7.47;;;;;;;-144.78;100.00;59851.00;5015216;28;20210;-70
2021/01/17 09:13:02;;;;;;;15.95;8.27;;;;;;;-144.78;100.00;59851.00;5015079;28;20183;-71
2021/01/17 09:15:33;;;;;;;13.82;6.40;;;;;;;-144.78;100.00;59851.00;5014955;28;20203;-71
2021/01/17 09:18:01;;;;;;;12.05;6.97;;;;;;;-144.78;100.00;59851.00;5014662;28;20202;-70
2021/01/17 09:20:29;;;;;;;13.85;7.50;;;;;;;-144.78;100.00;59851.00;5014454;28;20206;-71
2021/01/17 09:22:58;;;;;;;12.20;6.10;;;;;;;-144.78;100.00;59851.00;5014709;28;20559;-71
2021/01/17 09:25:26;;;;;;;11.88;7.10;;;;;;;-144.78;100.00;59851.00;5014374;28;20202;-70
2021/01/17 09:27:56;;;;;;;16.20;8.25;;;;;;;-144.78;100.00;59851.00;5017050;28;20665;-71
2021/01/17 09:30:24;;;;;;;14.82;7.20;;;;;;;-144.78;100.00;59851.00;5022916;28;20226;-71
2021/01/17 09:32:51;;;;;;;9.77;6.55;;;;;;;-144.78;100.00;59851.00;5020625;28;20210;-71
2021/01/17 09:35:22;;;;;;;12.00;6.35;;;;;;;-144.78;100.00;59851.00;5032074;28;20225;-70
2021/01/17 09:37:57;;;;;;;16.42;7.97;;;;;;;-144.78;100.00;59851.00;5024420;28;20198;-70
2021/01/17 09:40:24;;;;;;;9.02;5.43;;;;;;;-144.78;100.00;59851.00;5025370;28;20302;-71
2021/01/17 09:42:53;;;;;;;12.40;7.53;;;;;;;-144.78;100.00;59851.00;5033586;28;20519;-70
2021/01/17 09:45:20;;;;;;;10.60;6.32;;;;;;;-144.78;100.00;59851.00;5031704;28;20686;-70
2021/01/17 09:47:47;;;;;;;14.38;7.22;;;;;;;-144.78;100.00;59851.00;5028700;28;20202;-68
2021/01/17 09:50:14;;;;;;;18.98;7.30;;;;;;;-144.78;100.00;59851.00;5025972;28;20210;-71
2021/01/17 09:52:41;;;;;;;18.98;7.90;;;;;;;-144.78;100.00;59851.00;5021564;28;20270;-70
2021/01/17 09:55:09;;;;;;;13.48;7.03;;;;;;;-144.78;100.00;59851.00;5026031;28;20245;-70
2021/01/17 09:57:40;;;;;;;9.90;7.25;;;;;;;-144.78;100.00;59851.00;5013945;28;20207;-70
2021/01/17 10:00:09;;;;;;;12.05;7.03;;;;;;;-144.78;100.00;59851.00;5020627;28;20260;-72
2021/01/17 10:02:37;;;;;;;16.88;7.68;;;;;;;-144.78;100.00;59851.00;5032273;28;20199;-71
2021/01/17 10:05:04;;;;;;;9.80;6.53;;;;;;;-144.78;100.00;59851.00;5027422;28;20666;-71
2021/01/17 10:07:31;;;;;;;10.32;6.60;;;;;;;-144.78;100.00;59851.00;5032144;28;20191;-69
2021/01/17 10:09:57;;;;;;;9.88;6.38;;;;;;;-144.78;100.00;59851.00;5031437;28;20199;-69
2021/01/17 10:12:25;;;;;;;16.63;6.35;;;;;;;-144.78;100.00;59851.00;5036061;28;20208;-70
2021/01/17 10:14:54;;;;;;;11.50;6.70;;;;;;;-144.78;100.00;59851.00;5031996;28;20226;-68
2021/01/17 10:17:22;;;;;;;16.02;6.20;;;;;;;-144.78;100.00;59851.00;5036997;28;20622;-68
2021/01/17 10:19:50;;;;;;;13.45;6.63;;;;;;;-144.78;100.00;59851.00;5035653;28;20243;-71
2021/01/17 10:22:17;;;;;;;14.07;6.85;;;;;;;-144.78;100.00;59851.00;5034734;28;20961;-71
2021/01/17 10:24:44;;;;;;;11.65;5.80;;;;;;;-144.78;100.00;59851.00;5033374;28;20206;-72
2021/01/17 10:27:12;;;;;;;10.88;6.20;;;;;;;-144.78;100.00;59851.00;5032983;28;20217;-70
2021/01/17 10:29:40;;;;;;;14.55;5.35;;;;;;;-144.78;100.00;59851.00;5032824;28;20231;-73
2021/01/17 10:32:09;;;;;;;9.55;5.50;;;;;;;-144.78;100.00;59851.00;5017119;28;20196;-70
2021/01/17 10:34:38;;;;;;;11.60;6.22;;;;;;;-144.78;100.00;59851.00;5023372;28;20209;-71
2021/01/17 10:37:08;;;;;;;11.13;5.72;;;;;;;-144.78;100.00;59851.00;5025393;28;20222;-70
2021/01/17 10:39:37;;;;;;;12.35;7.05;;;;;;;-144.78;100.00;59851.00;5014023;28;20241;-70
2021/01/17 10:42:07;;;;;;;11.30;6.03;;;;;;;-144.78;100.00;59851.00;5019390;28;20642;-70
2021/01/17 10:44:38;;;;;;;13.65;8.40;;;;;;;-144.78;100.00;59851.00;5015268;28;20227;-70
2021/01/17 10:47:10;;;;;;;18.40;9.00;;;;;;;-144.78;100.00;59851.00;5018516;28;20212;-71
2021/01/17 10:49:39;;;;;;;15.02;7.90;;;;;;;-144.78;100.00;59851.00;5022358;28;20204;-70
2021/01/17 10:52:16;;;;;;;12.05;7.25;;;;;;;-144.78;100.00;59851.00;5027376;28;20658;-70
2021/01/17 10:54:46;;;;;;;18.80;7.93;;;;;;;-144.78;100.00;59851.00;5030723;28;20584;-71
2021/01/17 10:57:13;;;;;;;15.50;7.43;;;;;;;-144.78;100.00;59851.00;5032393;28;20244;-71
2021/01/17 10:59:40;;;;;;;15.52;7.25;;;;;;;-144.78;100.00;59851.00;5028672;28;20565;-72
2021/01/17 11:02:07;;;;;;;16.00;8.85;;;;;;;-144.78;100.00;59851.00;5025175;28;20263;-72
2021/01/17 11:04:41;;;;;;;16.50;7.25;;;;;;;-144.78;100.00;59851.00;5032196;28;20198;-72
2021/01/17 11:07:09;;;;;;;10.10;5.80;;;;;;;-144.78;100.00;59851.00;5017680;28;20194;-71
2021/01/17 11:09:36;;;;;;;11.50;5.97;;;;;;;-144.78;100.00;59851.00;5031238;28;20644;-71
2021/01/17 11:12:03;;;;;;;15.90;7.20;;;;;;;-144.78;100.00;59851.00;5019774;28;20244;-72
2021/01/17 11:14:31;;;;;;;13.95;5.90;;;;;;;-144.78;100.00;59851.00;5019196;28;20270;-72
2021/01/17 11:16:59;;;;;;;8.68;5.10;;;;;;;-144.78;100.00;59851.00;5032133;28;20236;-72
2021/01/17 11:19:40;;;;;;;11.55;7.45;;;;;;;-144.78;100.00;59851.00;5030894;28;20203;-72
2021/01/17 11:22:07;;;;;;;8.52;7.10;;;;;;;-144.78;100.00;59851.00;5022541;28;20218;-72
2021/01/17 11:24:36;;;;;;;17.17;7.28;;;;;;;-144.78;100.00;59851.00;5032065;28;20373;-72
2021/01/17 11:27:34;;;;;;;11.45;6.82;;;;;;;-144.78;100.00;59851.00;5016576;28;20230;-71
2021/01/17 11:30:11;;;;;;;11.63;5.97;;;;;;;-144.78;100.00;59851.00;5027470;28;20199;-71